Time;durP1;ratioP1;P1;durP2;ratioP2;P2;SDS_P1;SDS_P2;PMS_P1;PMS_P2;Temp;Humidity;BMP_temperature;BMP_pressure;BME280_temperature;BME280_humidity;BME280_pressure;Samples;Min_cycle;Max_cycle;Signal;HPM_P1;HPM_P2
2023/01/29 00:01:15;;;;;;;0.00;0.00;;;;;;;;;;5068924;28;20813;-88
2023/01/29 00:03:44;;;;;;;0.07;0.07;;;;;;;;;;5070617;28;20246;-88
2023/01/29 00:06:20;;;;;;;0.40;0.40;;;;;;;;;;5071049;28;20226;-87
2023/01/29 00:08:49;;;;;;;0.43;0.43;;;;;;;;;;5070941;28;20214;-89
2023/01/29 00:11:19;;;;;;;0.10;0.10;;;;;;;;;;5071330;28;20222;-89
2023/01/29 00:13:46;;;;;;;0.63;0.63;;;;;;;;;;5070485;28;20230;-81
2023/01/29 00:16:14;;;;;;;0.17;0.17;;;;;;;;;;5070342;28;20235;-89
2023/01/29 00:18:51;;;;;;;0.33;0.33;;;;;;;;;;5101725;28;20237;-87
2023/01/29 00:21:20;;;;;;;0.00;0.00;;;;;;;;;;5112912;28;20311;-87
2023/01/29 00:23:54;;;;;;;0.13;0.13;;;;;;;;;;5090948;28;20237;-87
2023/01/29 00:26:25;;;;;;;0.43;0.43;;;;;;;;;;5109047;28;20253;-89
2023/01/29 00:29:01;;;;;;;1.60;0.40;;;;;;;;;;5111473;28;20217;-87
2023/01/29 00:31:33;;;;;;;0.20;0.20;;;;;;;;;;5109270;28;20285;-88
2023/01/29 00:34:01;;;;;;;0.00;0.00;;;;;;;;;;5090160;28;20237;-88
2023/01/29 00:36:29;;;;;;;0.10;0.10;;;;;;;;;;5091362;28;20237;-88
2023/01/29 00:39:02;;;;;;;1.00;0.90;;;;;;;;;;5090504;28;20236;-88
2023/01/29 00:47:29;;;;;;;0.50;0.50;;;;;;;;;;5090157;28;20788;-88
2023/01/29 00:49:54;;;;;;;0.30;0.30;;;;;;;;;;5089224;28;20610;-88
2023/01/29 00:52:26;;;;;;;1.53;0.80;;;;;;;;;;5098026;28;20727;-86
2023/01/29 00:55:02;;;;;;;0.53;0.53;;;;;;;;;;5110599;28;20316;-88
2023/01/29 00:57:32;;;;;;;0.10;0.10;;;;;;;;;;5112325;28;20520;-88
2023/01/29 01:00:05;;;;;;;0.23;0.23;;;;;;;;;;5110148;28;20243;-88
2023/01/29 01:05:21;;;;;;;0.53;0.53;;;;;;;;;;5108356;28;20220;-86
2023/01/29 01:07:51;;;;;;;0.50;0.50;;;;;;;;;;5091087;28;20302;-88
2023/01/29 01:10:23;;;;;;;0.37;0.37;;;;;;;;;;5091098;28;20226;-87
2023/01/29 01:12:55;;;;;;;0.33;0.33;;;;;;;;;;5109927;28;20221;-86
2023/01/29 01:15:36;;;;;;;;;;;;;;;;;;;;;
2023/01/29 01:18:05;;;;;;;4.60;1.17;;;;;;;;;;5099442;28;20229;-86
2023/01/29 01:20:46;;;;;;;0.00;0.00;;;;;;;;;;5100865;28;20225;-85
2023/01/29 01:23:16;;;;;;;1.90;0.50;;;;;;;;;;5110563;28;20211;-88
2023/01/29 01:25:54;;;;;;;0.30;0.30;;;;;;;;;;5098533;28;20225;-88
2023/01/29 01:28:24;;;;;;;0.00;0.00;;;;;;;;;;5111792;28;20258;-87
2023/01/29 01:30:56;;;;;;;0.10;0.10;;;;;;;;;;5111810;28;20200;-88
2023/01/29 01:33:24;;;;;;;0.27;0.27;;;;;;;;;;5119233;28;20270;-86
2023/01/29 01:35:52;;;;;;;0.23;0.23;;;;;;;;;;5113699;28;20211;-88
2023/01/29 01:38:22;;;;;;;0.47;0.47;;;;;;;;;;5111415;28;20193;-87
2023/01/29 01:41:03;;;;;;;0.40;0.40;;;;;;;;;;5111636;28;20208;-87
2023/01/29 01:43:48;;;;;;;0.20;0.20;;;;;;;;;;5111609;28;20193;-88
2023/01/29 01:46:21;;;;;;;0.10;0.10;;;;;;;;;;5111492;28;20272;-87
2023/01/29 01:48:51;;;;;;;0.37;0.37;;;;;;;;;;5109862;28;20200;-88
2023/01/29 01:51:21;;;;;;;0.00;0.00;;;;;;;;;;5091315;28;20209;-88
2023/01/29 01:53:53;;;;;;;0.17;0.17;;;;;;;;;;5091055;28;20232;-88
2023/01/29 01:56:39;;;;;;;0.93;0.37;;;;;;;;;;5089913;28;20217;-86
2023/01/29 01:59:12;;;;;;;1.43;0.73;;;;;;;;;;5090418;28;20727;-86
2023/01/29 02:01:48;;;;;;;0.30;0.30;;;;;;;;;;5090887;28;20588;-88
2023/01/29 02:09:53;;;;;;;0.00;0.00;;;;;;;;;;5091034;28;20570;-89
2023/01/29 02:12:30;;;;;;;0.90;0.40;;;;;;;;;;5090556;28;20198;-85
2023/01/29 02:14:57;;;;;;;0.30;0.30;;;;;;;;;;5090798;28;20236;-88
2023/01/29 02:17:26;;;;;;;0.20;0.20;;;;;;;;;;5090431;28;20324;-86
2023/01/29 02:19:59;;;;;;;1.07;0.40;;;;;;;;;;5091003;28;20194;-86
2023/01/29 02:22:53;;;;;;;0.20;0.20;;;;;;;;;;5089974;28;20227;-88
2023/01/29 02:25:42;;;;;;;0.40;0.40;;;;;;;;;;5088230;28;20206;-87
2023/01/29 02:28:21;;;;;;;0.93;0.50;;;;;;;;;;5110940;28;20217;-86
2023/01/29 02:31:09;;;;;;;0.57;0.57;;;;;;;;;;5111194;28;20189;-89
2023/01/29 02:33:46;;;;;;;0.77;0.50;;;;;;;;;;5111191;28;20661;-88
2023/01/29 02:36:20;;;;;;;0.10;0.10;;;;;;;;;;5109581;28;20197;-88
2023/01/29 02:38:51;;;;;;;0.43;0.40;;;;;;;;;;5111082;28;20185;-88
2023/01/29 02:41:27;;;;;;;0.17;0.17;;;;;;;;;;5111165;28;20686;-87
2023/01/29 02:44:17;;;;;;;0.57;0.57;;;;;;;;;;5110925;28;20197;-86
2023/01/29 02:46:57;;;;;;;0.47;0.47;;;;;;;;;;5111340;28;20667;-88
2023/01/29 02:49:28;;;;;;;0.13;0.13;;;;;;;;;;5110936;28;20243;-87
2023/01/29 02:52:05;;;;;;;1.70;0.33;;;;;;;;;;5112035;28;20560;-87
2023/01/29 02:54:41;;;;;;;0.43;0.17;;;;;;;;;;5117527;28;20228;-88
2023/01/29 02:57:15;;;;;;;0.47;0.47;;;;;;;;;;5096487;28;20212;-89
2023/01/29 02:59:46;;;;;;;0.00;0.00;;;;;;;;;;5094353;28;20217;-88
2023/01/29 03:02:16;;;;;;;0.67;0.63;;;;;;;;;;5095111;28;20635;-86
2023/01/29 03:04:59;;;;;;;0.40;0.10;;;;;;;;;;5090936;28;20263;-86
2023/01/29 03:07:47;;;;;;;0.53;0.53;;;;;;;;;;5092349;28;20194;-86
2023/01/29 03:10:29;;;;;;;;;;;;;;;;;;;;;
2023/01/29 03:13:10;;;;;;;1.53;0.83;;;;;;;;;;5099139;28;20209;-88
2023/01/29 03:15:47;;;;;;;0.10;0.10;;;;;;;;;;5101466;28;20228;-86
2023/01/29 03:18:19;;;;;;;0.10;0.10;;;;;;;;;;5104857;28;20308;-86
2023/01/29 03:20:48;;;;;;;0.20;0.20;;;;;;;;;;5096883;28;20838;-88
2023/01/29 03:23:22;;;;;;;0.43;0.43;;;;;;;;;;5098019;28;20208;-87
2023/01/29 03:34:22;;;;;;;0.10;0.10;;;;;;;;;;5093088;28;20604;-89
2023/01/29 03:36:58;;;;;;;0.00;0.00;;;;;;;;;;5093063;28;20221;-87
2023/01/29 03:39:30;;;;;;;0.20;0.20;;;;;;;;;;5093877;28;20197;-87
2023/01/29 03:41:59;;;;;;;0.37;0.37;;;;;;;;;;5093823;28;20247;-87
2023/01/29 03:44:34;;;;;;;0.33;0.33;;;;;;;;;;5092182;28;20278;-88
2023/01/29 03:47:13;;;;;;;0.23;0.23;;;;;;;;;;5101482;28;20265;-89
2023/01/29 03:49:53;;;;;;;0.00;0.00;;;;;;;;;;5113969;28;20289;-88
2023/01/29 03:52:34;;;;;;;0.10;0.10;;;;;;;;;;5114037;27;20193;-88
2023/01/29 03:55:05;;;;;;;0.17;0.17;;;;;;;;;;5113159;28;20612;-88
2023/01/29 03:57:39;;;;;;;0.00;0.00;;;;;;;;;;5114001;28;20307;-87
2023/01/29 04:00:09;;;;;;;0.00;0.00;;;;;;;;;;5114239;28;20673;-87
2023/01/29 04:02:40;;;;;;;0.20;0.20;;;;;;;;;;5113078;28;20594;-87
2023/01/29 04:05:13;;;;;;;0.00;0.00;;;;;;;;;;5112941;28;20204;-88
2023/01/29 04:07:43;;;;;;;0.10;0.10;;;;;;;;;;5113138;28;20281;-88
2023/01/29 04:10:15;;;;;;;2.20;0.43;;;;;;;;;;5113807;28;20221;-87
2023/01/29 04:12:49;;;;;;;0.20;0.20;;;;;;;;;;5113928;28;20573;-87
2023/01/29 04:15:19;;;;;;;0.30;0.30;;;;;;;;;;5113943;28;20626;-87
2023/01/29 04:17:52;;;;;;;0.10;0.10;;;;;;;;;;5112305;28;20283;-88
2023/01/29 04:20:27;;;;;;;0.10;0.10;;;;;;;;;;5113227;28;20197;-88
2023/01/29 04:22:59;;;;;;;0.20;0.20;;;;;;;;;;5113460;28;20280;-88
2023/01/29 04:25:34;;;;;;;0.73;0.30;;;;;;;;;;5108784;28;20285;-87
2023/01/29 04:28:05;;;;;;;0.53;0.50;;;;;;;;;;5099762;28;20243;-88
2023/01/29 04:30:44;;;;;;;0.03;0.03;;;;;;;;;;5096318;28;20206;-86
2023/01/29 04:33:23;;;;;;;1.20;0.57;;;;;;;;;;5092417;28;20206;-88
2023/01/29 04:36:04;;;;;;;0.00;0.00;;;;;;;;;;5092496;28;20229;-86
2023/01/29 04:38:41;;;;;;;21.13;0.60;;;;;;;;;;5092927;28;20479;-88
2023/01/29 04:41:11;;;;;;;0.00;0.00;;;;;;;;;;5093269;28;20274;-87
2023/01/29 04:43:45;;;;;;;0.60;0.57;;;;;;;;;;5094857;28;20186;-84
2023/01/29 04:46:16;;;;;;;0.10;0.10;;;;;;;;;;5097301;28;20198;-86
2023/01/29 04:49:00;;;;;;;0.30;0.30;;;;;;;;;;5095100;28;20519;-87
2023/01/29 04:51:43;;;;;;;0.50;0.50;;;;;;;;;;5092574;28;20224;-87
2023/01/29 04:54:18;;;;;;;0.00;0.00;;;;;;;;;;5092672;28;20218;-88
2023/01/29 04:56:49;;;;;;;0.00;0.00;;;;;;;;;;5109172;28;20207;-87
2023/01/29 04:59:20;;;;;;;1.83;0.40;;;;;;;;;;5112145;28;20193;-85
2023/01/29 05:01:54;;;;;;;0.23;0.23;;;;;;;;;;5113084;28;20193;-85
2023/01/29 05:04:33;;;;;;;0.00;0.00;;;;;;;;;;5112429;28;20185;-86
2023/01/29 05:07:05;;;;;;;0.07;0.07;;;;;;;;;;5112072;28;20737;-86
2023/01/29 05:09:36;;;;;;;0.33;0.33;;;;;;;;;;5113735;28;20205;-87
2023/01/29 05:12:06;;;;;;;0.10;0.10;;;;;;;;;;5113824;28;20682;-87
2023/01/29 05:14:34;;;;;;;0.77;0.73;;;;;;;;;;5115978;28;20197;-86
2023/01/29 05:17:08;;;;;;;4.93;3.13;;;;;;;;;;5114036;28;20630;-88
2023/01/29 05:19:39;;;;;;;8.53;1.80;;;;;;;;;;5115087;28;20204;-87
2023/01/29 05:22:10;;;;;;;0.90;0.90;;;;;;;;;;5115722;28;20212;-86
2023/01/29 05:24:45;;;;;;;0.97;0.60;;;;;;;;;;5117279;28;20204;-88
2023/01/29 05:30:04;;;;;;;0.00;0.00;;;;;;;;;;5114640;28;20181;-88
2023/01/29 05:32:38;;;;;;;0.50;0.50;;;;;;;;;;5112602;27;20265;-88
2023/01/29 05:35:09;;;;;;;0.07;0.07;;;;;;;;;;5113277;28;20693;-87
2023/01/29 05:37:36;;;;;;;0.10;0.10;;;;;;;;;;5113750;28;20622;-87
2023/01/29 05:40:08;;;;;;;0.20;0.13;;;;;;;;;;5112654;28;20204;-87
2023/01/29 05:45:42;;;;;;;0.17;0.17;;;;;;;;;;5110142;28;20294;-87
2023/01/29 05:48:13;;;;;;;0.13;0.13;;;;;;;;;;5112655;28;20529;-88
2023/01/29 05:50:51;;;;;;;0.40;0.40;;;;;;;;;;5112974;28;20205;-88
2023/01/29 05:53:19;;;;;;;0.00;0.00;;;;;;;;;;5113243;28;20193;-87
2023/01/29 05:56:03;;;;;;;;;;;;;;;;;;;;;
2023/01/29 05:58:36;;;;;;;0.10;0.10;;;;;;;;;;5113133;28;20182;-88
2023/01/29 06:01:30;;;;;;;0.20;0.20;;;;;;;;;;5112185;28;20193;-88
2023/01/29 06:04:26;;;;;;;0.30;0.30;;;;;;;;;;5111995;28;20224;-88
2023/01/29 06:07:08;;;;;;;0.10;0.10;;;;;;;;;;5111027;28;20507;-88
2023/01/29 06:09:37;;;;;;;0.10;0.10;;;;;;;;;;5112856;28;20248;-88
2023/01/29 06:12:11;;;;;;;0.20;0.20;;;;;;;;;;5112446;28;20200;-88
2023/01/29 06:17:36;;;;;;;;;;;;;;;;;;;;;
2023/01/29 06:20:11;;;;;;;0.03;0.03;;;;;;;;;;5112317;28;20200;-90
2023/01/29 06:22:47;;;;;;;0.10;0.10;;;;;;;;;;5111895;28;20204;-88
2023/01/29 06:25:15;;;;;;;0.20;0.20;;;;;;;;;;5111664;28;20201;-88
2023/01/29 06:27:47;;;;;;;0.03;0.03;;;;;;;;;;5112249;28;20335;-88
2023/01/29 06:30:18;;;;;;;0.10;0.10;;;;;;;;;;5112473;28;20193;-86
2023/01/29 06:32:45;;;;;;;0.57;0.43;;;;;;;;;;5115427;28;20276;-88
2023/01/29 06:35:14;;;;;;;0.20;0.20;;;;;;;;;;5125768;28;20233;-87
2023/01/29 06:37:47;;;;;;;0.30;0.30;;;;;;;;;;5121743;28;20189;-86
2023/01/29 06:40:15;;;;;;;0.50;0.50;;;;;;;;;;5122148;28;20197;-86
2023/01/29 06:42:43;;;;;;;0.07;0.07;;;;;;;;;;5120658;28;20203;-88
2023/01/29 06:45:15;;;;;;;0.10;0.10;;;;;;;;;;5121270;28;20208;-86
2023/01/29 06:47:45;;;;;;;0.20;0.20;;;;;;;;;;5122869;28;20218;-88
2023/01/29 06:50:17;;;;;;;0.40;0.30;;;;;;;;;;5115907;28;20211;-87
2023/01/29 06:52:49;;;;;;;0.10;0.10;;;;;;;;;;5111521;28;20206;-88
2023/01/29 06:55:22;;;;;;;0.07;0.07;;;;;;;;;;5110839;28;20209;-88
2023/01/29 06:58:06;;;;;;;0.20;0.20;;;;;;;;;;5111941;28;20679;-88
2023/01/29 07:00:37;;;;;;;0.37;0.37;;;;;;;;;;5113201;28;20197;-87
2023/01/29 07:03:36;;;;;;;;;;;;;;;;;;;;;
2023/01/29 07:06:06;;;;;;;2.40;0.53;;;;;;;;;;5110945;28;20190;-87
2023/01/29 07:08:49;;;;;;;0.27;0.27;;;;;;;;;;5117208;28;20258;-87
2023/01/29 07:11:24;;;;;;;1.20;0.43;;;;;;;;;;5111550;28;20211;-87
2023/01/29 07:14:14;;;;;;;4.00;0.83;;;;;;;;;;5112611;28;20189;-88
2023/01/29 07:16:53;;;;;;;;;;;;;;;;;;;;;
2023/01/29 07:19:28;;;;;;;0.50;0.50;;;;;;;;;;5112128;28;20295;-87
2023/01/29 07:22:04;;;;;;;0.10;0.10;;;;;;;;;;5112362;28;20221;-87
2023/01/29 07:24:52;;;;;;;0.87;0.33;;;;;;;;;;5111592;28;20724;-88
2023/01/29 07:27:33;;;;;;;0.20;0.20;;;;;;;;;;5112081;28;20189;-87
2023/01/29 07:30:15;;;;;;;3.37;1.03;;;;;;;;;;5111548;28;20197;-88
2023/01/29 07:32:52;;;;;;;0.20;0.20;;;;;;;;;;5112477;28;20276;-87
2023/01/29 07:35:34;;;;;;;0.10;0.10;;;;;;;;;;5111949;28;20732;-86
2023/01/29 07:38:06;;;;;;;0.30;0.30;;;;;;;;;;5112748;28;20638;-88
2023/01/29 07:40:41;;;;;;;1.43;0.67;;;;;;;;;;5111140;28;20197;-88
2023/01/29 07:43:15;;;;;;;0.00;0.00;;;;;;;;;;5112894;28;20241;-87
2023/01/29 07:48:40;;;;;;;;;;;;;;;;;;;;;
2023/01/29 07:51:11;;;;;;;0.87;0.87;;;;;;;;;;5112922;28;20192;-87
2023/01/29 07:53:49;;;;;;;5.83;1.73;;;;;;;;;;5114771;28;20217;-88
2023/01/29 07:56:31;;;;;;;1.17;1.17;;;;;;;;;;5117388;28;20736;-88
2023/01/29 07:59:06;;;;;;;4.57;1.33;;;;;;;;;;5110967;28;20674;-87
2023/01/29 08:01:36;;;;;;;0.80;0.80;;;;;;;;;;5115059;28;20730;-88
2023/01/29 08:04:13;;;;;;;0.83;0.83;;;;;;;;;;5112307;28;20190;-87
2023/01/29 08:07:03;;;;;;;0.00;0.00;;;;;;;;;;5117037;28;20213;-91
2023/01/29 08:09:33;;;;;;;0.33;0.33;;;;;;;;;;5130647;28;20220;-89
2023/01/29 08:12:07;;;;;;;0.40;0.40;;;;;;;;;;5133165;28;20200;-91
2023/01/29 08:14:55;;;;;;;0.57;0.57;;;;;;;;;;5124204;28;20257;-89
2023/01/29 08:17:22;;;;;;;1.67;1.10;;;;;;;;;;5122250;28;20240;-91
2023/01/29 08:19:50;;;;;;;0.70;0.70;;;;;;;;;;5122544;28;20205;-91
2023/01/29 08:22:21;;;;;;;0.33;0.30;;;;;;;;;;5120273;28;20206;-91
2023/01/29 08:24:56;;;;;;;0.73;0.73;;;;;;;;;;5109140;28;20197;-91
2023/01/29 08:27:29;;;;;;;3.23;1.50;;;;;;;;;;5109111;28;20240;-91
2023/01/29 08:30:38;;;;;;;1.00;0.90;;;;;;;;;;5106713;28;20236;-91
2023/01/29 08:33:24;;;;;;;1.20;1.07;;;;;;;;;;5117400;28;20209;-92
2023/01/29 08:36:02;;;;;;;0.80;0.60;;;;;;;;;;5119291;28;20699;-91
2023/01/29 08:38:31;;;;;;;0.43;0.37;;;;;;;;;;5118484;28;20189;-91
2023/01/29 08:40:59;;;;;;;1.10;1.10;;;;;;;;;;5124122;28;20244;-91
2023/01/29 08:43:52;;;;;;;0.53;0.53;;;;;;;;;;5122535;28;20198;-89
2023/01/29 08:46:50;;;;;;;2.43;0.63;;;;;;;;;;5120978;28;20205;-89
2023/01/29 08:49:29;;;;;;;0.70;0.70;;;;;;;;;;5039293;28;20196;-90
2023/01/29 08:51:57;;;;;;;2.70;0.57;;;;;;;;;;5035365;28;20238;-90
2023/01/29 08:54:30;;;;;;;0.63;0.63;;;;;;;;;;5025161;28;20203;-92
2023/01/29 08:57:03;;;;;;;1.43;0.63;;;;;;;;;;5048155;28;20220;-91
2023/01/29 08:59:32;;;;;;;1.07;1.07;;;;;;;;;;5116203;28;20193;-90
2023/01/29 09:02:01;;;;;;;1.13;1.13;;;;;;;;;;5115273;28;20308;-90
2023/01/29 09:07:15;;;;;;;0.20;0.20;;;;;;;;;;5085305;28;20222;-91
2023/01/29 09:09:45;;;;;;;4.43;0.67;;;;;;;;;;5093085;28;20798;-89
2023/01/29 09:15:18;;;;;;;0.73;0.67;;;;;;;;;;5103586;28;20221;-89
2023/01/29 09:17:52;;;;;;;1.63;1.17;;;;;;;;;;5111556;28;20241;-91
2023/01/29 09:20:36;;;;;;;0.73;0.73;;;;;;;;;;5114633;28;20224;-90
2023/01/29 09:23:12;;;;;;;8.07;2.47;;;;;;;;;;5118413;28;20225;-89
2023/01/29 09:25:47;;;;;;;1.57;1.57;;;;;;;;;;5118977;28;20282;-90
2023/01/29 09:28:17;;;;;;;0.40;0.40;;;;;;;;;;5116972;28;20216;-90
2023/01/29 09:30:48;;;;;;;0.63;0.63;;;;;;;;;;5123955;28;20303;-89
2023/01/29 09:36:43;;;;;;;1.37;0.97;;;;;;;;;;5121710;28;20225;-86
2023/01/29 09:39:22;;;;;;;0.70;0.70;;;;;;;;;;5127524;28;20289;-86
2023/01/29 09:41:54;;;;;;;0.30;0.30;;;;;;;;;;5128697;28;20232;-87
2023/01/29 09:44:34;;;;;;;0.87;0.87;;;;;;;;;;5113921;28;20248;-89
2023/01/29 09:47:19;;;;;;;0.30;0.30;;;;;;;;;;5098773;28;20224;-89
2023/01/29 09:49:54;;;;;;;0.03;0.03;;;;;;;;;;5112974;28;20232;-89
2023/01/29 09:52:34;;;;;;;1.27;0.63;;;;;;;;;;5111499;28;20551;-89
2023/01/29 09:55:10;;;;;;;0.77;0.77;;;;;;;;;;5109499;28;20224;-91
2023/01/29 09:57:47;;;;;;;1.73;1.43;;;;;;;;;;5091161;28;20268;-89
2023/01/29 10:00:24;;;;;;;0.20;0.20;;;;;;;;;;5091557;28;20308;-89
2023/01/29 10:03:10;;;;;;;0.47;0.47;;;;;;;;;;5095824;28;20232;-89
2023/01/29 10:05:45;;;;;;;0.60;0.60;;;;;;;;;;5120538;28;20213;-90
2023/01/29 10:08:35;;;;;;;0.63;0.63;;;;;;;;;;5114507;28;20232;-87
2023/01/29 10:11:15;;;;;;;0.50;0.50;;;;;;;;;;5118361;28;20213;-89
2023/01/29 10:13:52;;;;;;;0.70;0.70;;;;;;;;;;5111643;28;20213;-90
2023/01/29 10:16:28;;;;;;;0.10;0.10;;;;;;;;;;5118890;28;20239;-90
2023/01/29 10:19:19;;;;;;;1.60;1.53;;;;;;;;;;5117144;28;20228;-90
2023/01/29 10:22:09;;;;;;;0.93;0.93;;;;;;;;;;5107504;28;20525;-90
2023/01/29 10:24:43;;;;;;;0.73;0.63;;;;;;;;;;5105956;28;20229;-89
2023/01/29 10:27:24;;;;;;;0.20;0.20;;;;;;;;;;5114330;28;20221;-91
2023/01/29 10:30:16;;;;;;;;;;;;;;;;;;;;;
2023/01/29 10:33:00;;;;;;;2.63;2.37;;;;;;;;;;5112429;28;20224;-90
2023/01/29 10:35:38;;;;;;;3.17;1.73;;;;;;;;;;5114956;28;20227;-90
2023/01/29 10:38:19;;;;;;;0.70;0.57;;;;;;;;;;5110702;28;20233;-90
2023/01/29 10:41:07;;;;;;;1.03;0.50;;;;;;;;;;5121297;28;20227;-90
2023/01/29 10:43:53;;;;;;;0.63;0.63;;;;;;;;;;5116758;28;20225;-91
2023/01/29 10:46:28;;;;;;;1.90;1.13;;;;;;;;;;5114851;28;20225;-90
2023/01/29 10:49:02;;;;;;;0.23;0.23;;;;;;;;;;5108827;28;20280;-90
2023/01/29 10:52:04;;;;;;;0.37;0.37;;;;;;;;;;5108428;28;20216;-88
2023/01/29 10:54:42;;;;;;;0.93;0.63;;;;;;;;;;5112115;28;20660;-89
2023/01/29 10:57:23;;;;;;;0.60;0.60;;;;;;;;;;5115023;28;20257;-91
2023/01/29 11:03:35;;;;;;;0.27;0.27;;;;;;;;;;5114707;28;20243;-89
2023/01/29 11:06:17;;;;;;;0.77;0.47;;;;;;;;;;5115237;28;20227;-89
2023/01/29 11:09:04;;;;;;;11.43;1.23;;;;;;;;;;5118388;28;20308;-89
2023/01/29 11:11:43;;;;;;;12.60;1.70;;;;;;;;;;5123214;28;20285;-90
2023/01/29 11:14:21;;;;;;;1.33;1.23;;;;;;;;;;5119870;28;20252;-90
2023/01/29 11:17:01;;;;;;;0.60;0.40;;;;;;;;;;5118229;28;20233;-91
2023/01/29 11:19:42;;;;;;;1.90;0.97;;;;;;;;;;5118621;28;20245;-89
2023/01/29 11:22:19;;;;;;;0.40;0.40;;;;;;;;;;5115425;28;20646;-90
2023/01/29 11:25:19;;;;;;;0.43;0.43;;;;;;;;;;5112565;28;20307;-89
2023/01/29 11:28:13;;;;;;;0.40;0.40;;;;;;;;;;5116123;28;20269;-89
2023/01/29 11:31:12;;;;;;;0.53;0.20;;;;;;;;;;5119116;28;20224;-90
2023/01/29 11:33:43;;;;;;;0.40;0.40;;;;;;;;;;5120072;28;20220;-89
2023/01/29 11:36:31;;;;;;;0.30;0.30;;;;;;;;;;5128131;27;20228;-89
2023/01/29 11:39:20;;;;;;;0.60;0.60;;;;;;;;;;5135531;28;20225;-89
2023/01/29 11:41:54;;;;;;;1.00;0.90;;;;;;;;;;5123796;28;20229;-89
2023/01/29 11:44:44;;;;;;;0.20;0.20;;;;;;;;;;5116985;27;20228;-89
2023/01/29 11:47:26;;;;;;;0.50;0.50;;;;;;;;;;5123618;28;20285;-90
2023/01/29 11:50:03;;;;;;;0.63;0.57;;;;;;;;;;5117724;28;20221;-90
2023/01/29 11:52:42;;;;;;;1.37;1.07;;;;;;;;;;5116241;28;20221;-90
2023/01/29 11:55:18;;;;;;;1.03;0.77;;;;;;;;;;5120738;28;20239;-89
2023/01/29 11:58:01;;;;;;;;;;;;;;;;;;;;;
2023/01/29 12:00:42;;;;;;;0.83;0.83;;;;;;;;;;5118530;28;20232;-89
2023/01/29 12:03:34;;;;;;;1.57;1.47;;;;;;;;;;5120172;28;20224;-89
2023/01/29 12:06:06;;;;;;;0.30;0.30;;;;;;;;;;5114439;28;20213;-88
2023/01/29 12:08:41;;;;;;;0.80;0.80;;;;;;;;;;5119086;28;20301;-90
2023/01/29 12:11:11;;;;;;;1.43;1.43;;;;;;;;;;5119054;28;20700;-89
2023/01/29 12:13:55;;;;;;;1.00;0.40;;;;;;;;;;5122118;28;20224;-88
2023/01/29 12:16:26;;;;;;;1.60;1.50;;;;;;;;;;5107468;28;20329;-89
2023/01/29 12:19:02;;;;;;;0.63;0.63;;;;;;;;;;5116912;28;20229;-89
2023/01/29 12:21:40;;;;;;;2.20;1.70;;;;;;;;;;5115595;28;20230;-90
2023/01/29 12:24:19;;;;;;;2.13;0.93;;;;;;;;;;5115633;28;20299;-89
2023/01/29 12:27:09;;;;;;;1.13;1.13;;;;;;;;;;5116908;28;20614;-89
2023/01/29 12:29:52;;;;;;;1.20;1.00;;;;;;;;;;5114168;28;20227;-87
2023/01/29 12:32:25;;;;;;;0.93;0.77;;;;;;;;;;5109725;28;20220;-87
2023/01/29 12:35:18;;;;;;;;;;;;;;;;;;;;;
2023/01/29 12:37:55;;;;;;;4.47;0.60;;;;;;;;;;5130565;28;20228;-90
2023/01/29 12:40:25;;;;;;;0.77;0.77;;;;;;;;;;5129320;28;20224;-88
2023/01/29 12:43:00;;;;;;;1.93;0.87;;;;;;;;;;5130388;28;20579;-89
2023/01/29 12:45:52;;;;;;;0.90;0.90;;;;;;;;;;5126115;28;20221;-88
2023/01/29 12:48:25;;;;;;;0.20;0.20;;;;;;;;;;5121322;28;20217;-87
2023/01/29 12:51:00;;;;;;;5.40;1.37;;;;;;;;;;5119594;28;20221;-89
2023/01/29 12:53:42;;;;;;;2.83;0.83;;;;;;;;;;5121483;28;20221;-91
2023/01/29 12:56:36;;;;;;;0.00;0.00;;;;;;;;;;5113879;28;20232;-90
2023/01/29 13:02:17;;;;;;;1.30;1.23;;;;;;;;;;5109178;28;20684;-89
2023/01/29 13:05:18;;;;;;;0.97;0.53;;;;;;;;;;5114872;28;20274;-89
2023/01/29 13:08:14;;;;;;;0.80;0.80;;;;;;;;;;5105577;28;20217;-92
2023/01/29 13:10:48;;;;;;;1.90;1.67;;;;;;;;;;5112823;28;20225;-93
2023/01/29 13:13:28;;;;;;;0.43;0.43;;;;;;;;;;5111475;28;20252;-90
2023/01/29 13:16:00;;;;;;;6.77;1.37;;;;;;;;;;5095663;28;20576;-90
2023/01/29 13:18:42;;;;;;;0.30;0.30;;;;;;;;;;5092849;28;20291;-90
2023/01/29 13:21:16;;;;;;;0.03;0.03;;;;;;;;;;5092950;28;20271;-91
2023/01/29 13:23:58;;;;;;;1.03;0.53;;;;;;;;;;5093477;28;20226;-91
2023/01/29 13:26:48;;;;;;;0.67;0.67;;;;;;;;;;5092416;28;20221;-92
2023/01/29 13:29:30;;;;;;;2.00;1.17;;;;;;;;;;5097795;28;20654;-91
2023/01/29 13:32:09;;;;;;;0.77;0.77;;;;;;;;;;5093663;28;20646;-91
2023/01/29 13:34:55;;;;;;;0.93;0.77;;;;;;;;;;5091785;28;20230;-90
2023/01/29 13:37:38;;;;;;;1.30;0.87;;;;;;;;;;5107094;28;20227;-93
2023/01/29 13:40:25;;;;;;;0.80;0.40;;;;;;;;;;5112356;28;20232;-89
2023/01/29 13:42:56;;;;;;;0.63;0.63;;;;;;;;;;5105766;28;20214;-89
2023/01/29 13:45:38;;;;;;;0.30;0.30;;;;;;;;;;5108038;28;20230;-90
2023/01/29 13:51:24;;;;;;;1.43;0.50;;;;;;;;;;5099632;28;20259;-90
2023/01/29 13:54:11;;;;;;;1.13;1.07;;;;;;;;;;5110544;28;20233;-89
2023/01/29 13:56:44;;;;;;;1.17;1.10;;;;;;;;;;5091517;28;20329;-90
2023/01/29 14:02:28;;;;;;;0.23;0.23;;;;;;;;;;5104402;28;20240;-91
2023/01/29 14:05:17;;;;;;;0.63;0.63;;;;;;;;;;5110342;28;20225;-90
2023/01/29 14:08:00;;;;;;;0.57;0.57;;;;;;;;;;5109911;28;20233;-91
2023/01/29 14:10:39;;;;;;;0.77;0.77;;;;;;;;;;5114537;28;20213;-92
2023/01/29 14:13:41;;;;;;;2.73;1.40;;;;;;;;;;5119770;28;20234;-89
2023/01/29 14:16:31;;;;;;;1.90;0.97;;;;;;;;;;5126223;28;20224;-89
2023/01/29 14:19:08;;;;;;;0.83;0.83;;;;;;;;;;5115801;28;21091;-90
2023/01/29 14:21:40;;;;;;;1.70;1.50;;;;;;;;;;5111058;28;20227;-91
2023/01/29 14:24:21;;;;;;;4.77;1.03;;;;;;;;;;5108930;28;20213;-92
2023/01/29 14:27:11;;;;;;;0.63;0.63;;;;;;;;;;5111207;28;20220;-89
2023/01/29 14:29:57;;;;;;;4.03;1.17;;;;;;;;;;5111596;28;20239;-91
2023/01/29 14:32:38;;;;;;;4.80;1.23;;;;;;;;;;5111280;28;20835;-89
2023/01/29 14:35:17;;;;;;;0.00;0.00;;;;;;;;;;5109527;28;20713;-91
2023/01/29 14:37:57;;;;;;;0.67;0.67;;;;;;;;;;5111451;28;20733;-90
2023/01/29 14:40:31;;;;;;;1.43;1.43;;;;;;;;;;5113542;28;20224;-89
2023/01/29 14:43:03;;;;;;;2.17;0.83;;;;;;;;;;5117863;28;20228;-91
2023/01/29 14:45:40;;;;;;;0.80;0.80;;;;;;;;;;5116591;28;20288;-90
2023/01/29 14:51:20;;;;;;;2.27;1.23;;;;;;;;;;5110764;28;20289;-90
2023/01/29 14:59:52;;;;;;;0.53;0.53;;;;;;;;;;5115701;28;20221;-92
2023/01/29 15:08:17;;;;;;;1.07;1.07;;;;;;;;;;5111927;28;20227;-90
2023/01/29 15:11:32;;;;;;;1.37;1.00;;;;;;;;;;5123965;27;20278;-91
2023/01/29 15:13:55;;;;;;;0.40;0.40;;;;;;;;;;5119706;28;20240;-92
2023/01/29 15:16:33;;;;;;;1.50;0.93;;;;;;;;;;5135427;28;20220;-90
2023/01/29 15:19:14;;;;;;;0.83;0.70;;;;;;;;;;5127162;28;20247;-91
2023/01/29 15:24:51;;;;;;;1.60;0.93;;;;;;;;;;5121529;28;20275;-89
2023/01/29 15:27:25;;;;;;;0.27;0.27;;;;;;;;;;5128062;28;20227;-90
2023/01/29 15:30:10;;;;;;;0.50;0.50;;;;;;;;;;5121168;28;20219;-91
2023/01/29 15:32:51;;;;;;;1.17;1.17;;;;;;;;;;5118531;28;20221;-90
2023/01/29 15:35:55;;;;;;;0.60;0.57;;;;;;;;;;5117732;28;20228;-91
2023/01/29 15:41:19;;;;;;;1.17;1.17;;;;;;;;;;5115607;28;20264;-92
2023/01/29 15:43:47;;;;;;;1.37;1.30;;;;;;;;;;5118461;28;20217;-90
2023/01/29 15:46:26;;;;;;;0.70;0.70;;;;;;;;;;5123600;28;20249;-89
2023/01/29 15:49:02;;;;;;;2.10;1.33;;;;;;;;;;5126845;28;20700;-91
2023/01/29 15:51:42;;;;;;;1.03;0.90;;;;;;;;;;5116070;28;20241;-91
2023/01/29 15:57:03;;;;;;;2.10;1.47;;;;;;;;;;5109075;28;20221;-91
2023/01/29 15:59:36;;;;;;;1.03;0.87;;;;;;;;;;5115178;28;20229;-92
2023/01/29 16:02:31;;;;;;;2.03;1.93;;;;;;;;;;5115563;28;20278;-89
2023/01/29 16:05:04;;;;;;;1.83;1.47;;;;;;;;;;5113924;28;20268;-92
2023/01/29 16:10:35;;;;;;;2.27;0.93;;;;;;;;;;5116160;27;20225;-92
2023/01/29 16:16:07;;;;;;;1.10;1.00;;;;;;;;;;5112408;28;20240;-91
2023/01/29 16:18:45;;;;;;;0.57;0.57;;;;;;;;;;5115477;28;20252;-91
2023/01/29 16:21:20;;;;;;;2.00;0.63;;;;;;;;;;5114926;28;20233;-92
2023/01/29 16:24:21;;;;;;;1.97;1.07;;;;;;;;;;5115553;28;20212;-91
2023/01/29 16:27:02;;;;;;;1.00;0.97;;;;;;;;;;5115713;28;20243;-92
2023/01/29 16:29:37;;;;;;;1.77;1.30;;;;;;;;;;5115532;28;20221;-90
2023/01/29 16:32:12;;;;;;;3.13;2.90;;;;;;;;;;5113748;27;20438;-90
2023/01/29 16:35:21;;;;;;;0.70;0.70;;;;;;;;;;5114241;28;20248;-91
2023/01/29 16:38:00;;;;;;;0.93;0.93;;;;;;;;;;5115222;28;20221;-90
2023/01/29 16:40:55;;;;;;;0.30;0.30;;;;;;;;;;5115203;28;20258;-91
2023/01/29 16:43:51;;;;;;;0.43;0.43;;;;;;;;;;5114112;28;20242;-91
2023/01/29 16:46:41;;;;;;;1.47;1.37;;;;;;;;;;5115207;28;20232;-92
2023/01/29 16:49:34;;;;;;;0.33;0.33;;;;;;;;;;5115585;28;20225;-92
2023/01/29 16:55:24;;;;;;;0.57;0.57;;;;;;;;;;5112710;28;20279;-91
2023/01/29 16:58:10;;;;;;;0.33;0.33;;;;;;;;;;5119802;28;20228;-89
2023/01/29 17:00:52;;;;;;;0.80;0.80;;;;;;;;;;5089387;28;20222;-90
2023/01/29 17:03:38;;;;;;;1.13;0.60;;;;;;;;;;5087990;28;20252;-90
2023/01/29 17:06:24;;;;;;;0.93;0.63;;;;;;;;;;5112074;28;20273;-91
2023/01/29 17:09:08;;;;;;;0.67;0.67;;;;;;;;;;5129922;28;20689;-91
2023/01/29 17:11:38;;;;;;;0.77;0.77;;;;;;;;;;5127883;28;20459;-89
2023/01/29 17:20:24;;;;;;;1.00;1.00;;;;;;;;;;5116998;28;20261;-91
2023/01/29 17:23:00;;;;;;;4.83;1.83;;;;;;;;;;5117499;28;20942;-91
2023/01/29 17:25:37;;;;;;;2.83;1.87;;;;;;;;;;5117638;28;20217;-90
2023/01/29 17:28:05;;;;;;;2.33;0.87;;;;;;;;;;5119635;28;20217;-91
2023/01/29 17:30:41;;;;;;;4.97;1.87;;;;;;;;;;5120528;28;20221;-89